sensor_id;sensor_type;location;lat;lon;timestamp;P1;durP1;ratioP1;P2;durP2;ratioP2
34585;SDS011;20816;50.950;11.108;2023-10-19T00:01:16;9.73;;;5.17;;
34585;SDS011;20816;50.950;11.108;2023-10-19T00:03:44;8.33;;;5.40;;
34585;SDS011;20816;50.950;11.108;2023-10-19T00:06:16;7.40;;;5.13;;
34585;SDS011;20816;50.950;11.108;2023-10-19T00:08:44;9.70;;;5.60;;
34585;SDS011;20816;50.950;11.108;2023-10-19T00:11:11;8.90;;;5.80;;
34585;SDS011;20816;50.950;11.108;2023-10-19T00:13:48;12.77;;;6.00;;
34585;SDS011;20816;50.950;11.108;2023-10-19T00:16:20;10.60;;;6.27;;
34585;SDS011;20816;50.950;11.108;2023-10-19T00:18:56;12.67;;;6.00;;
34585;SDS011;20816;50.950;11.108;2023-10-19T00:21:26;7.77;;;5.47;;
34585;SDS011;20816;50.950;11.108;2023-10-19T00:23:55;13.37;;;5.90;;
34585;SDS011;20816;50.950;11.108;2023-10-19T00:26:31;7.87;;;5.67;;
34585;SDS011;20816;50.950;11.108;2023-10-19T00:28:58;8.53;;;5.90;;
34585;SDS011;20816;50.950;11.108;2023-10-19T00:31:31;14.17;;;7.37;;
34585;SDS011;20816;50.950;11.108;2023-10-19T00:34:03;12.77;;;6.20;;
34585;SDS011;20816;50.950;11.108;2023-10-19T00:36:30;12.80;;;7.63;;
34585;SDS011;20816;50.950;11.108;2023-10-19T00:38:58;10.17;;;5.90;;
34585;SDS011;20816;50.950;11.108;2023-10-19T00:41:27;8.77;;;5.77;;
34585;SDS011;20816;50.950;11.108;2023-10-19T00:43:58;12.40;;;6.37;;
34585;SDS011;20816;50.950;11.108;2023-10-19T00:46:38;12.23;;;7.07;;
34585;SDS011;20816;50.950;11.108;2023-10-19T00:49:08;12.03;;;6.77;;
34585;SDS011;20816;50.950;11.108;2023-10-19T00:51:39;12.63;;;6.43;;
34585;SDS011;20816;50.950;11.108;2023-10-19T00:54:34;12.47;;;6.20;;
34585;SDS011;20816;50.950;11.108;2023-10-19T00:57:04;10.93;;;6.43;;
34585;SDS011;20816;50.950;11.108;2023-10-19T00:59:39;11.83;;;6.83;;
34585;SDS011;20816;50.950;11.108;2023-10-19T01:02:13;9.63;;;6.00;;
34585;SDS011;20816;50.950;11.108;2023-10-19T01:04:44;11.60;;;7.10;;
34585;SDS011;20816;50.950;11.108;2023-10-19T01:07:17;12.63;;;7.30;;
34585;SDS011;20816;50.950;11.108;2023-10-19T01:10:03;13.10;;;6.43;;
34585;SDS011;20816;50.950;11.108;2023-10-19T01:12:47;10.30;;;6.40;;
34585;SDS011;20816;50.950;11.108;2023-10-19T01:15:15;12.00;;;7.07;;
34585;SDS011;20816;50.950;11.108;2023-10-19T01:17:44;13.70;;;7.10;;
34585;SDS011;20816;50.950;11.108;2023-10-19T01:20:16;14.87;;;7.57;;
34585;SDS011;20816;50.950;11.108;2023-10-19T01:22:57;11.40;;;7.97;;
34585;SDS011;20816;50.950;11.108;2023-10-19T01:25:44;12.17;;;6.73;;
34585;SDS011;20816;50.950;11.108;2023-10-19T01:28:33;11.67;;;6.60;;
34585;SDS011;20816;50.950;11.108;2023-10-19T01:31:25;9.67;;;6.40;;
34585;SDS011;20816;50.950;11.108;2023-10-19T01:33:58;15.00;;;7.00;;
34585;SDS011;20816;50.950;11.108;2023-10-19T01:36:27;10.73;;;6.60;;
34585;SDS011;20816;50.950;11.108;2023-10-19T01:38:55;13.70;;;7.50;;
34585;SDS011;20816;50.950;11.108;2023-10-19T01:41:24;11.97;;;7.20;;
34585;SDS011;20816;50.950;11.108;2023-10-19T01:43:53;11.60;;;7.63;;
34585;SDS011;20816;50.950;11.108;2023-10-19T01:46:22;16.23;;;7.90;;
34585;SDS011;20816;50.950;11.108;2023-10-19T01:49:03;12.80;;;6.97;;
34585;SDS011;20816;50.950;11.108;2023-10-19T01:51:31;11.83;;;7.00;;
34585;SDS011;20816;50.950;11.108;2023-10-19T01:53:59;14.87;;;8.00;;
34585;SDS011;20816;50.950;11.108;2023-10-19T01:56:30;10.90;;;6.80;;
34585;SDS011;20816;50.950;11.108;2023-10-19T01:58:56;11.60;;;6.73;;
34585;SDS011;20816;50.950;11.108;2023-10-19T02:01:25;11.20;;;7.43;;
34585;SDS011;20816;50.950;11.108;2023-10-19T02:03:56;13.07;;;7.30;;
34585;SDS011;20816;50.950;11.108;2023-10-19T02:06:25;12.13;;;7.57;;
34585;SDS011;20816;50.950;11.108;2023-10-19T02:09:03;14.53;;;8.60;;
34585;SDS011;20816;50.950;11.108;2023-10-19T02:11:45;13.43;;;7.93;;
34585;SDS011;20816;50.950;11.108;2023-10-19T02:14:13;13.57;;;7.77;;
34585;SDS011;20816;50.950;11.108;2023-10-19T02:16:44;12.37;;;7.47;;
34585;SDS011;20816;50.950;11.108;2023-10-19T02:19:13;14.07;;;7.33;;
34585;SDS011;20816;50.950;11.108;2023-10-19T02:21:41;11.67;;;7.40;;
34585;SDS011;20816;50.950;11.108;2023-10-19T02:24:08;10.07;;;6.57;;
34585;SDS011;20816;50.950;11.108;2023-10-19T02:26:38;11.73;;;7.90;;
34585;SDS011;20816;50.950;11.108;2023-10-19T02:29:06;13.20;;;6.33;;
34585;SDS011;20816;50.950;11.108;2023-10-19T02:31:36;12.67;;;7.70;;
34585;SDS011;20816;50.950;11.108;2023-10-19T02:34:07;9.43;;;6.47;;
34585;SDS011;20816;50.950;11.108;2023-10-19T02:36:40;11.40;;;6.17;;
34585;SDS011;20816;50.950;11.108;2023-10-19T02:39:09;12.53;;;7.77;;
34585;SDS011;20816;50.950;11.108;2023-10-19T02:41:41;14.43;;;7.57;;
34585;SDS011;20816;50.950;11.108;2023-10-19T02:44:18;10.93;;;7.07;;
34585;SDS011;20816;50.950;11.108;2023-10-19T02:46:54;10.80;;;6.43;;
34585;SDS011;20816;50.950;11.108;2023-10-19T02:49:27;10.53;;;6.87;;
34585;SDS011;20816;50.950;11.108;2023-10-19T02:51:56;15.03;;;8.10;;
34585;SDS011;20816;50.950;11.108;2023-10-19T02:54:30;14.53;;;7.50;;
34585;SDS011;20816;50.950;11.108;2023-10-19T02:57:01;14.10;;;7.37;;
34585;SDS011;20816;50.950;11.108;2023-10-19T02:59:32;12.13;;;7.27;;
34585;SDS011;20816;50.950;11.108;2023-10-19T03:01:59;15.53;;;6.77;;
34585;SDS011;20816;50.950;11.108;2023-10-19T03:04:28;15.03;;;7.07;;
34585;SDS011;20816;50.950;11.108;2023-10-19T03:06:56;9.83;;;6.77;;
34585;SDS011;20816;50.950;11.108;2023-10-19T03:09:24;10.13;;;6.47;;
34585;SDS011;20816;50.950;11.108;2023-10-19T03:11:54;11.63;;;7.93;;
34585;SDS011;20816;50.950;11.108;2023-10-19T03:14:26;9.30;;;6.10;;
34585;SDS011;20816;50.950;11.108;2023-10-19T03:16:54;14.10;;;6.93;;
34585;SDS011;20816;50.950;11.108;2023-10-19T03:19:24;9.40;;;6.33;;
34585;SDS011;20816;50.950;11.108;2023-10-19T03:21:54;11.70;;;6.80;;
34585;SDS011;20816;50.950;11.108;2023-10-19T03:24:22;13.53;;;7.57;;
34585;SDS011;20816;50.950;11.108;2023-10-19T03:27:10;9.70;;;6.70;;
34585;SDS011;20816;50.950;11.108;2023-10-19T03:29:48;9.83;;;5.63;;
34585;SDS011;20816;50.950;11.108;2023-10-19T03:32:22;13.20;;;5.73;;
34585;SDS011;20816;50.950;11.108;2023-10-19T03:34:54;12.67;;;6.60;;
34585;SDS011;20816;50.950;11.108;2023-10-19T03:37:23;9.37;;;5.83;;
34585;SDS011;20816;50.950;11.108;2023-10-19T03:39:52;12.43;;;5.83;;
34585;SDS011;20816;50.950;11.108;2023-10-19T03:42:23;10.57;;;6.00;;
34585;SDS011;20816;50.950;11.108;2023-10-19T03:44:54;9.47;;;6.53;;
34585;SDS011;20816;50.950;11.108;2023-10-19T03:47:23;9.53;;;5.90;;
34585;SDS011;20816;50.950;11.108;2023-10-19T03:50:00;10.17;;;5.93;;
34585;SDS011;20816;50.950;11.108;2023-10-19T03:52:36;9.33;;;5.93;;
34585;SDS011;20816;50.950;11.108;2023-10-19T03:55:06;8.27;;;6.23;;
34585;SDS011;20816;50.950;11.108;2023-10-19T03:57:45;12.13;;;7.03;;
34585;SDS011;20816;50.950;11.108;2023-10-19T04:00:21;8.70;;;5.27;;
34585;SDS011;20816;50.950;11.108;2023-10-19T04:02:53;10.17;;;6.07;;
34585;SDS011;20816;50.950;11.108;2023-10-19T04:05:22;7.70;;;5.20;;
34585;SDS011;20816;50.950;11.108;2023-10-19T04:07:49;9.50;;;5.67;;
34585;SDS011;20816;50.950;11.108;2023-10-19T04:10:18;9.53;;;5.47;;
34585;SDS011;20816;50.950;11.108;2023-10-19T04:13:08;8.10;;;4.90;;
34585;SDS011;20816;50.950;11.108;2023-10-19T04:15:39;8.03;;;5.73;;
34585;SDS011;20816;50.950;11.108;2023-10-19T04:18:08;8.30;;;4.83;;
34585;SDS011;20816;50.950;11.108;2023-10-19T04:20:36;6.43;;;4.23;;
34585;SDS011;20816;50.950;11.108;2023-10-19T04:23:16;6.83;;;4.70;;
34585;SDS011;20816;50.950;11.108;2023-10-19T04:25:43;14.87;;;5.87;;
34585;SDS011;20816;50.950;11.108;2023-10-19T04:28:13;6.47;;;3.83;;
34585;SDS011;20816;50.950;11.108;2023-10-19T04:30:41;5.30;;;3.30;;
34585;SDS011;20816;50.950;11.108;2023-10-19T04:33:08;4.03;;;2.77;;
34585;SDS011;20816;50.950;11.108;2023-10-19T04:35:37;3.40;;;1.97;;
34585;SDS011;20816;50.950;11.108;2023-10-19T04:38:08;3.83;;;2.53;;
34585;SDS011;20816;50.950;11.108;2023-10-19T04:40:34;2.67;;;1.80;;
34585;SDS011;20816;50.950;11.108;2023-10-19T04:43:02;3.40;;;2.00;;
34585;SDS011;20816;50.950;11.108;2023-10-19T04:45:31;2.73;;;1.90;;
34585;SDS011;20816;50.950;11.108;2023-10-19T04:47:58;2.67;;;1.80;;
34585;SDS011;20816;50.950;11.108;2023-10-19T04:50:25;4.50;;;2.27;;
34585;SDS011;20816;50.950;11.108;2023-10-19T04:52:52;6.33;;;1.90;;
34585;SDS011;20816;50.950;11.108;2023-10-19T04:55:19;2.63;;;1.60;;
34585;SDS011;20816;50.950;11.108;2023-10-19T04:57:45;1.77;;;1.47;;
34585;SDS011;20816;50.950;11.108;2023-10-19T05:00:13;5.93;;;2.10;;
34585;SDS011;20816;50.950;11.108;2023-10-19T05:02:41;2.23;;;1.40;;
34585;SDS011;20816;50.950;11.108;2023-10-19T05:05:09;2.77;;;1.87;;
34585;SDS011;20816;50.950;11.108;2023-10-19T05:07:36;2.07;;;1.47;;
34585;SDS011;20816;50.950;11.108;2023-10-19T05:10:03;2.37;;;1.50;;
34585;SDS011;20816;50.950;11.108;2023-10-19T05:12:32;2.33;;;1.40;;
34585;SDS011;20816;50.950;11.108;2023-10-19T05:14:59;2.13;;;1.37;;
34585;SDS011;20816;50.950;11.108;2023-10-19T05:17:26;2.70;;;1.07;;
34585;SDS011;20816;50.950;11.108;2023-10-19T05:19:54;1.73;;;1.10;;
34585;SDS011;20816;50.950;11.108;2023-10-19T05:22:23;1.97;;;1.50;;
34585;SDS011;20816;50.950;11.108;2023-10-19T05:24:51;2.70;;;1.30;;
34585;SDS011;20816;50.950;11.108;2023-10-19T05:27:18;2.03;;;1.30;;
34585;SDS011;20816;50.950;11.108;2023-10-19T05:29:46;2.13;;;1.40;;
34585;SDS011;20816;50.950;11.108;2023-10-19T05:32:13;2.53;;;1.73;;
34585;SDS011;20816;50.950;11.108;2023-10-19T05:34:40;1.70;;;1.03;;
34585;SDS011;20816;50.950;11.108;2023-10-19T05:37:07;1.60;;;1.30;;
34585;SDS011;20816;50.950;11.108;2023-10-19T05:39:35;3.77;;;1.50;;
34585;SDS011;20816;50.950;11.108;2023-10-19T05:42:03;2.50;;;1.73;;
34585;SDS011;20816;50.950;11.108;2023-10-19T05:44:31;4.03;;;2.47;;
34585;SDS011;20816;50.950;11.108;2023-10-19T05:46:58;2.43;;;1.97;;
34585;SDS011;20816;50.950;11.108;2023-10-19T05:49:26;5.60;;;3.60;;
34585;SDS011;20816;50.950;11.108;2023-10-19T05:51:55;4.17;;;2.93;;
34585;SDS011;20816;50.950;11.108;2023-10-19T05:54:22;6.23;;;4.23;;
34585;SDS011;20816;50.950;11.108;2023-10-19T05:56:50;4.00;;;3.40;;
34585;SDS011;20816;50.950;11.108;2023-10-19T05:59:18;7.83;;;3.40;;
34585;SDS011;20816;50.950;11.108;2023-10-19T06:01:45;4.40;;;3.37;;
34585;SDS011;20816;50.950;11.108;2023-10-19T06:04:15;4.53;;;3.03;;
34585;SDS011;20816;50.950;11.108;2023-10-19T06:06:46;5.07;;;3.17;;
34585;SDS011;20816;50.950;11.108;2023-10-19T06:09:15;7.60;;;3.37;;
34585;SDS011;20816;50.950;11.108;2023-10-19T06:11:44;4.27;;;2.83;;
34585;SDS011;20816;50.950;11.108;2023-10-19T06:14:11;4.87;;;3.90;;
34585;SDS011;20816;50.950;11.108;2023-10-19T06:16:37;7.47;;;4.90;;
34585;SDS011;20816;50.950;11.108;2023-10-19T06:19:04;8.17;;;5.37;;
34585;SDS011;20816;50.950;11.108;2023-10-19T06:21:32;7.30;;;5.17;;
34585;SDS011;20816;50.950;11.108;2023-10-19T06:24:00;8.60;;;5.77;;
34585;SDS011;20816;50.950;11.108;2023-10-19T06:26:27;9.43;;;5.20;;
34585;SDS011;20816;50.950;11.108;2023-10-19T06:28:54;13.17;;;6.40;;
34585;SDS011;20816;50.950;11.108;2023-10-19T06:31:29;12.03;;;6.60;;
34585;SDS011;20816;50.950;11.108;2023-10-19T06:33:56;12.83;;;8.10;;
34585;SDS011;20816;50.950;11.108;2023-10-19T06:36:24;11.67;;;6.43;;
34585;SDS011;20816;50.950;11.108;2023-10-19T06:38:51;11.53;;;7.00;;
34585;SDS011;20816;50.950;11.108;2023-10-19T06:41:20;13.37;;;6.97;;
34585;SDS011;20816;50.950;11.108;2023-10-19T06:43:52;12.27;;;8.17;;
34585;SDS011;20816;50.950;11.108;2023-10-19T06:46:19;10.00;;;7.03;;
34585;SDS011;20816;50.950;11.108;2023-10-19T06:48:47;11.10;;;6.23;;
34585;SDS011;20816;50.950;11.108;2023-10-19T06:51:14;9.93;;;5.93;;
34585;SDS011;20816;50.950;11.108;2023-10-19T06:53:43;10.80;;;6.57;;
34585;SDS011;20816;50.950;11.108;2023-10-19T06:56:10;9.87;;;6.43;;
34585;SDS011;20816;50.950;11.108;2023-10-19T06:58:37;13.70;;;7.20;;
34585;SDS011;20816;50.950;11.108;2023-10-19T07:01:07;13.37;;;6.93;;
34585;SDS011;20816;50.950;11.108;2023-10-19T07:03:35;10.27;;;6.33;;
34585;SDS011;20816;50.950;11.108;2023-10-19T07:06:02;10.97;;;6.57;;
34585;SDS011;20816;50.950;11.108;2023-10-19T07:08:35;12.03;;;6.43;;
34585;SDS011;20816;50.950;11.108;2023-10-19T07:11:02;12.67;;;7.90;;
34585;SDS011;20816;50.950;11.108;2023-10-19T07:13:29;15.57;;;8.07;;
34585;SDS011;20816;50.950;11.108;2023-10-19T07:16:00;13.53;;;7.20;;
34585;SDS011;20816;50.950;11.108;2023-10-19T07:18:27;12.90;;;7.23;;
34585;SDS011;20816;50.950;11.108;2023-10-19T07:20:55;15.87;;;7.33;;
34585;SDS011;20816;50.950;11.108;2023-10-19T07:23:29;10.47;;;6.07;;
34585;SDS011;20816;50.950;11.108;2023-10-19T07:25:56;13.93;;;7.97;;
34585;SDS011;20816;50.950;11.108;2023-10-19T07:28:26;10.40;;;6.03;;
34585;SDS011;20816;50.950;11.108;2023-10-19T07:30:54;10.10;;;7.33;;
34585;SDS011;20816;50.950;11.108;2023-10-19T07:33:23;11.80;;;7.67;;
34585;SDS011;20816;50.950;11.108;2023-10-19T07:35:50;11.27;;;6.90;;
34585;SDS011;20816;50.950;11.108;2023-10-19T07:38:23;9.60;;;6.47;;
34585;SDS011;20816;50.950;11.108;2023-10-19T07:40:52;9.73;;;6.70;;
34585;SDS011;20816;50.950;11.108;2023-10-19T07:43:20;8.47;;;5.53;;
34585;SDS011;20816;50.950;11.108;2023-10-19T07:45:48;8.03;;;5.67;;
34585;SDS011;20816;50.950;11.108;2023-10-19T07:48:15;11.03;;;6.63;;
34585;SDS011;20816;50.950;11.108;2023-10-19T07:50:43;8.03;;;5.63;;
34585;SDS011;20816;50.950;11.108;2023-10-19T07:53:11;8.23;;;5.80;;
34585;SDS011;20816;50.950;11.108;2023-10-19T07:55:37;11.67;;;5.63;;
34585;SDS011;20816;50.950;11.108;2023-10-19T07:58:06;9.47;;;4.77;;
34585;SDS011;20816;50.950;11.108;2023-10-19T08:00:33;7.40;;;4.63;;
34585;SDS011;20816;50.950;11.108;2023-10-19T08:03:01;7.53;;;4.90;;
34585;SDS011;20816;50.950;11.108;2023-10-19T08:05:28;10.27;;;4.87;;
34585;SDS011;20816;50.950;11.108;2023-10-19T08:07:55;7.73;;;3.90;;
34585;SDS011;20816;50.950;11.108;2023-10-19T08:10:24;5.50;;;2.90;;
34585;SDS011;20816;50.950;11.108;2023-10-19T08:12:53;6.50;;;3.10;;
34585;SDS011;20816;50.950;11.108;2023-10-19T08:15:22;4.67;;;2.83;;
34585;SDS011;20816;50.950;11.108;2023-10-19T08:17:49;3.90;;;2.97;;
34585;SDS011;20816;50.950;11.108;2023-10-19T08:20:17;9.20;;;3.40;;
34585;SDS011;20816;50.950;11.108;2023-10-19T08:22:52;6.80;;;4.10;;
34585;SDS011;20816;50.950;11.108;2023-10-19T08:25:25;5.33;;;3.27;;
34585;SDS011;20816;50.950;11.108;2023-10-19T08:28:13;4.35;;;2.80;;
34585;SDS011;20816;50.950;11.108;2023-10-19T08:30:41;3.90;;;2.63;;
34585;SDS011;20816;50.950;11.108;2023-10-19T08:33:08;6.35;;;2.22;;
34585;SDS011;20816;50.950;11.108;2023-10-19T08:35:34;2.47;;;2.13;;
34585;SDS011;20816;50.950;11.108;2023-10-19T08:38:02;3.88;;;2.22;;
34585;SDS011;20816;50.950;11.108;2023-10-19T08:40:36;3.85;;;2.58;;
34585;SDS011;20816;50.950;11.108;2023-10-19T08:43:04;2.65;;;2.20;;
34585;SDS011;20816;50.950;11.108;2023-10-19T08:45:31;3.95;;;2.88;;
34585;SDS011;20816;50.950;11.108;2023-10-19T08:48:01;7.88;;;5.63;;
34585;SDS011;20816;50.950;11.108;2023-10-19T08:50:29;9.95;;;7.07;;
34585;SDS011;20816;50.950;11.108;2023-10-19T08:52:57;11.07;;;6.97;;
34585;SDS011;20816;50.950;11.108;2023-10-19T08:55:27;14.80;;;7.43;;
34585;SDS011;20816;50.950;11.108;2023-10-19T08:57:56;9.63;;;6.30;;
34585;SDS011;20816;50.950;11.108;2023-10-19T09:00:27;17.30;;;7.47;;
34585;SDS011;20816;50.950;11.108;2023-10-19T09:02:54;12.35;;;8.27;;
34585;SDS011;20816;50.950;11.108;2023-10-19T09:05:23;17.63;;;8.60;;
34585;SDS011;20816;50.950;11.108;2023-10-19T09:07:50;14.18;;;8.93;;
34585;SDS011;20816;50.950;11.108;2023-10-19T09:10:27;11.63;;;8.27;;
34585;SDS011;20816;50.950;11.108;2023-10-19T09:12:58;14.45;;;9.50;;
34585;SDS011;20816;50.950;11.108;2023-10-19T09:15:28;15.73;;;8.85;;
34585;SDS011;20816;50.950;11.108;2023-10-19T09:18:19;18.02;;;10.30;;
34585;SDS011;20816;50.950;11.108;2023-10-19T09:20:48;17.13;;;9.45;;
34585;SDS011;20816;50.950;11.108;2023-10-19T09:23:34;13.70;;;8.23;;
34585;SDS011;20816;50.950;11.108;2023-10-19T09:26:03;10.07;;;6.88;;
34585;SDS011;20816;50.950;11.108;2023-10-19T09:28:35;9.82;;;7.15;;
34585;SDS011;20816;50.950;11.108;2023-10-19T09:31:04;7.78;;;5.30;;
34585;SDS011;20816;50.950;11.108;2023-10-19T09:33:33;7.38;;;5.03;;
34585;SDS011;20816;50.950;11.108;2023-10-19T09:36:01;3.22;;;2.15;;
34585;SDS011;20816;50.950;11.108;2023-10-19T09:38:31;1.83;;;1.40;;
34585;SDS011;20816;50.950;11.108;2023-10-19T09:40:59;4.47;;;1.65;;
34585;SDS011;20816;50.950;11.108;2023-10-19T09:43:30;1.65;;;1.48;;
34585;SDS011;20816;50.950;11.108;2023-10-19T09:46:09;1.35;;;1.23;;
34585;SDS011;20816;50.950;11.108;2023-10-19T09:48:41;1.02;;;0.93;;
34585;SDS011;20816;50.950;11.108;2023-10-19T09:51:12;2.72;;;1.40;;
34585;SDS011;20816;50.950;11.108;2023-10-19T09:53:44;1.60;;;1.27;;
34585;SDS011;20816;50.950;11.108;2023-10-19T09:56:27;1.58;;;1.48;;
34585;SDS011;20816;50.950;11.108;2023-10-19T09:59:02;1.55;;;1.40;;
34585;SDS011;20816;50.950;11.108;2023-10-19T10:02:03;1.52;;;1.23;;
34585;SDS011;20816;50.950;11.108;2023-10-19T10:04:33;2.35;;;1.50;;
34585;SDS011;20816;50.950;11.108;2023-10-19T10:07:02;1.83;;;1.20;;
34585;SDS011;20816;50.950;11.108;2023-10-19T10:09:38;1.40;;;1.27;;
34585;SDS011;20816;50.950;11.108;2023-10-19T10:12:23;1.38;;;0.90;;
34585;SDS011;20816;50.950;11.108;2023-10-19T10:17:27;1.48;;;1.38;;
34585;SDS011;20816;50.950;11.108;2023-10-19T10:22:37;2.53;;;1.23;;
34585;SDS011;20816;50.950;11.108;2023-10-19T10:25:04;1.30;;;1.02;;
34585;SDS011;20816;50.950;11.108;2023-10-19T10:27:31;2.20;;;1.30;;
34585;SDS011;20816;50.950;11.108;2023-10-19T10:30:00;0.93;;;0.70;;
34585;SDS011;20816;50.950;11.108;2023-10-19T10:32:45;1.27;;;1.02;;
34585;SDS011;20816;50.950;11.108;2023-10-19T10:38:07;1.42;;;0.80;;
34585;SDS011;20816;50.950;11.108;2023-10-19T10:41:09;3.00;;;1.92;;
34585;SDS011;20816;50.950;11.108;2023-10-19T10:43:28;4.85;;;3.10;;
34585;SDS011;20816;50.950;11.108;2023-10-19T10:46:02;4.10;;;3.22;;
34585;SDS011;20816;50.950;11.108;2023-10-19T10:48:30;4.05;;;3.08;;
34585;SDS011;20816;50.950;11.108;2023-10-19T10:50:57;4.22;;;3.40;;
34585;SDS011;20816;50.950;11.108;2023-10-19T10:53:25;6.47;;;3.35;;
34585;SDS011;20816;50.950;11.108;2023-10-19T10:55:53;5.05;;;3.65;;
34585;SDS011;20816;50.950;11.108;2023-10-19T10:58:20;10.30;;;1.63;;
34585;SDS011;20816;50.950;11.108;2023-10-19T11:00:48;4.20;;;2.30;;
34585;SDS011;20816;50.950;11.108;2023-10-19T11:03:18;4.63;;;3.50;;
34585;SDS011;20816;50.950;11.108;2023-10-19T11:05:45;1.73;;;1.48;;
34585;SDS011;20816;50.950;11.108;2023-10-19T11:08:13;0.90;;;0.80;;
34585;SDS011;20816;50.950;11.108;2023-10-19T11:10:44;1.15;;;1.05;;
34585;SDS011;20816;50.950;11.108;2023-10-19T11:13:16;0.73;;;0.70;;
34585;SDS011;20816;50.950;11.108;2023-10-19T11:15:50;2.40;;;0.68;;
34585;SDS011;20816;50.950;11.108;2023-10-19T11:18:28;2.45;;;1.45;;
34585;SDS011;20816;50.950;11.108;2023-10-19T11:20:55;1.65;;;1.15;;
34585;SDS011;20816;50.950;11.108;2023-10-19T11:23:36;0.90;;;0.70;;
34585;SDS011;20816;50.950;11.108;2023-10-19T11:26:02;0.70;;;0.70;;
34585;SDS011;20816;50.950;11.108;2023-10-19T11:28:31;1.10;;;0.65;;
34585;SDS011;20816;50.950;11.108;2023-10-19T11:31:16;1.08;;;0.73;;
34585;SDS011;20816;50.950;11.108;2023-10-19T11:33:45;0.60;;;0.60;;
34585;SDS011;20816;50.950;11.108;2023-10-19T11:36:15;1.67;;;0.77;;
34585;SDS011;20816;50.950;11.108;2023-10-19T11:38:43;1.20;;;0.70;;
34585;SDS011;20816;50.950;11.108;2023-10-19T11:41:11;0.70;;;0.70;;
34585;SDS011;20816;50.950;11.108;2023-10-19T11:43:40;0.88;;;0.60;;
34585;SDS011;20816;50.950;11.108;2023-10-19T11:46:09;0.68;;;0.60;;
34585;SDS011;20816;50.950;11.108;2023-10-19T11:48:38;1.42;;;0.80;;
34585;SDS011;20816;50.950;11.108;2023-10-19T11:51:06;2.05;;;0.90;;
34585;SDS011;20816;50.950;11.108;2023-10-19T11:53:33;0.40;;;0.40;;
34585;SDS011;20816;50.950;11.108;2023-10-19T11:56:04;1.40;;;0.90;;
34585;SDS011;20816;50.950;11.108;2023-10-19T11:58:36;0.80;;;0.80;;
34585;SDS011;20816;50.950;11.108;2023-10-19T12:01:06;1.10;;;0.70;;
34585;SDS011;20816;50.950;11.108;2023-10-19T12:03:41;1.00;;;0.90;;
34585;SDS011;20816;50.950;11.108;2023-10-19T12:06:12;1.70;;;1.05;;
34585;SDS011;20816;50.950;11.108;2023-10-19T12:08:46;1.08;;;1.02;;
34585;SDS011;20816;50.950;11.108;2023-10-19T12:11:13;1.45;;;1.35;;
34585;SDS011;20816;50.950;11.108;2023-10-19T12:13:45;1.45;;;0.70;;
34585;SDS011;20816;50.950;11.108;2023-10-19T12:16:14;3.65;;;1.00;;
34585;SDS011;20816;50.950;11.108;2023-10-19T12:18:46;3.72;;;0.90;;
34585;SDS011;20816;50.950;11.108;2023-10-19T12:21:15;2.20;;;0.65;;
34585;SDS011;20816;50.950;11.108;2023-10-19T12:23:45;1.05;;;0.80;;
34585;SDS011;20816;50.950;11.108;2023-10-19T12:26:20;3.05;;;1.38;;
34585;SDS011;20816;50.950;11.108;2023-10-19T12:28:47;8.90;;;4.93;;
34585;SDS011;20816;50.950;11.108;2023-10-19T12:31:16;4.35;;;3.33;;
34585;SDS011;20816;50.950;11.108;2023-10-19T12:33:46;5.75;;;3.92;;
34585;SDS011;20816;50.950;11.108;2023-10-19T12:36:12;3.72;;;1.70;;
34585;SDS011;20816;50.950;11.108;2023-10-19T12:38:48;0.95;;;0.77;;
34585;SDS011;20816;50.950;11.108;2023-10-19T12:41:16;0.77;;;0.75;;
34585;SDS011;20816;50.950;11.108;2023-10-19T12:43:43;1.58;;;0.60;;
34585;SDS011;20816;50.950;11.108;2023-10-19T12:46:15;2.33;;;0.70;;
34585;SDS011;20816;50.950;11.108;2023-10-19T12:48:45;1.70;;;0.90;;
34585;SDS011;20816;50.950;11.108;2023-10-19T12:51:15;0.90;;;0.70;;
34585;SDS011;20816;50.950;11.108;2023-10-19T12:53:44;2.10;;;1.05;;
34585;SDS011;20816;50.950;11.108;2023-10-19T12:56:12;2.88;;;0.80;;
34585;SDS011;20816;50.950;11.108;2023-10-19T12:58:39;1.20;;;0.60;;
34585;SDS011;20816;50.950;11.108;2023-10-19T13:01:07;1.23;;;1.13;;
34585;SDS011;20816;50.950;11.108;2023-10-19T13:03:43;4.50;;;2.80;;
34585;SDS011;20816;50.950;11.108;2023-10-19T13:06:14;6.90;;;3.67;;
34585;SDS011;20816;50.950;11.108;2023-10-19T13:08:41;7.22;;;3.50;;
34585;SDS011;20816;50.950;11.108;2023-10-19T13:11:08;4.35;;;2.28;;
34585;SDS011;20816;50.950;11.108;2023-10-19T13:13:44;6.20;;;2.78;;
34585;SDS011;20816;50.950;11.108;2023-10-19T13:16:12;4.18;;;2.40;;
34585;SDS011;20816;50.950;11.108;2023-10-19T13:18:40;4.55;;;3.35;;
34585;SDS011;20816;50.950;11.108;2023-10-19T13:21:07;7.90;;;3.10;;
34585;SDS011;20816;50.950;11.108;2023-10-19T13:23:43;2.20;;;1.75;;
34585;SDS011;20816;50.950;11.108;2023-10-19T13:26:11;1.10;;;0.75;;
34585;SDS011;20816;50.950;11.108;2023-10-19T13:28:44;2.50;;;0.65;;
34585;SDS011;20816;50.950;11.108;2023-10-19T13:31:11;1.13;;;0.50;;
34585;SDS011;20816;50.950;11.108;2023-10-19T13:33:42;3.15;;;0.70;;
34585;SDS011;20816;50.950;11.108;2023-10-19T13:36:10;0.60;;;0.57;;
34585;SDS011;20816;50.950;11.108;2023-10-19T13:38:37;2.63;;;0.70;;
34585;SDS011;20816;50.950;11.108;2023-10-19T13:41:05;1.10;;;1.00;;
34585;SDS011;20816;50.950;11.108;2023-10-19T13:43:37;3.15;;;0.60;;
34585;SDS011;20816;50.950;11.108;2023-10-19T13:46:05;1.60;;;0.50;;
34585;SDS011;20816;50.950;11.108;2023-10-19T13:48:32;2.75;;;0.95;;
34585;SDS011;20816;50.950;11.108;2023-10-19T13:50:59;0.77;;;0.40;;
34585;SDS011;20816;50.950;11.108;2023-10-19T13:53:40;1.42;;;0.50;;
34585;SDS011;20816;50.950;11.108;2023-10-19T13:56:08;1.30;;;1.20;;
34585;SDS011;20816;50.950;11.108;2023-10-19T13:58:38;1.08;;;0.85;;
34585;SDS011;20816;50.950;11.108;2023-10-19T14:01:08;0.93;;;0.63;;
34585;SDS011;20816;50.950;11.108;2023-10-19T14:03:37;2.75;;;0.82;;
34585;SDS011;20816;50.950;11.108;2023-10-19T14:06:05;4.65;;;1.15;;
34585;SDS011;20816;50.950;11.108;2023-10-19T14:08:32;1.52;;;0.57;;
34585;SDS011;20816;50.950;11.108;2023-10-19T14:11:02;0.88;;;0.85;;
34585;SDS011;20816;50.950;11.108;2023-10-19T14:13:30;3.80;;;0.90;;
34585;SDS011;20816;50.950;11.108;2023-10-19T14:15:58;1.27;;;0.77;;
34585;SDS011;20816;50.950;11.108;2023-10-19T14:18:25;0.77;;;0.70;;
34585;SDS011;20816;50.950;11.108;2023-10-19T14:20:54;1.48;;;0.80;;
34585;SDS011;20816;50.950;11.108;2023-10-19T14:23:21;1.90;;;1.33;;
34585;SDS011;20816;50.950;11.108;2023-10-19T14:25:47;4.20;;;0.70;;
34585;SDS011;20816;50.950;11.108;2023-10-19T14:28:16;0.60;;;0.60;;
34585;SDS011;20816;50.950;11.108;2023-10-19T14:30:43;1.58;;;0.60;;
34585;SDS011;20816;50.950;11.108;2023-10-19T14:33:11;1.52;;;0.88;;
34585;SDS011;20816;50.950;11.108;2023-10-19T14:35:38;4.43;;;0.60;;
34585;SDS011;20816;50.950;11.108;2023-10-19T14:38:09;0.93;;;0.80;;
34585;SDS011;20816;50.950;11.108;2023-10-19T14:40:37;1.23;;;0.77;;
34585;SDS011;20816;50.950;11.108;2023-10-19T14:43:05;1.60;;;0.75;;
34585;SDS011;20816;50.950;11.108;2023-10-19T14:45:32;0.90;;;0.63;;
34585;SDS011;20816;50.950;11.108;2023-10-19T14:47:59;0.85;;;0.57;;
34585;SDS011;20816;50.950;11.108;2023-10-19T14:50:30;0.95;;;0.77;;
34585;SDS011;20816;50.950;11.108;2023-10-19T14:52:58;0.93;;;0.70;;
34585;SDS011;20816;50.950;11.108;2023-10-19T14:55:25;0.63;;;0.63;;
34585;SDS011;20816;50.950;11.108;2023-10-19T14:57:53;1.52;;;0.90;;